Time;durP1;ratioP1;P1;durP2;ratioP2;P2;SDS_P1;SDS_P2;PMS_P1;PMS_P2;Temp;Humidity;BMP_temperature;BMP_pressure;BME280_temperature;BME280_humidity;BME280_pressure;Samples;Min_cycle;Max_cycle;Signal;HPM_P1;HPM_P2
2024/03/15 00:00:51;;;;;;;;;;;;;;;21.75;40.30;100629.78;4100170;29;19978;-61
2024/03/15 00:02:53;;;;;;;;;;;;;;;21.88;39.82;100645.69;4100179;28;19926;-61
2024/03/15 00:04:55;;;;;;;;;;;;;;;22.16;39.58;100638.81;4099943;28;19950;-61
2024/03/15 00:06:57;;;;;;;;;;;;;;;22.31;39.12;100636.66;4100335;28;19923;-61
2024/03/15 00:08:58;;;;;;;;;;;;;;;22.29;39.32;100636.75;4100339;28;19922;-61
2024/03/15 00:11:00;;;;;;;;;;;;;;;22.24;39.54;100638.16;4099781;28;20013;-63
2024/03/15 00:13:03;;;;;;;;;;;;;;;22.35;39.02;100643.44;4100051;28;20286;-61
2024/03/15 00:15:05;;;;;;;;;;;;;;;22.35;38.97;100651.47;4100022;28;20362;-63
2024/03/15 00:17:07;;;;;;;;;;;;;;;21.62;40.67;100662.13;4099677;28;19923;-62
2024/03/15 00:19:09;;;;;;;;;;;;;;;21.72;40.27;100646.13;4099584;28;19923;-63
2024/03/15 00:21:14;;;;;;;;;;;;;;;22.09;39.97;100657.25;4099922;29;19933;-61
2024/03/15 00:23:17;;;;;;;;;;;;;;;22.24;39.58;100652.41;4099962;28;20017;-63
2024/03/15 00:25:20;;;;;;;;;;;;;;;22.20;39.60;100650.09;4100045;28;19929;-61
2024/03/15 00:27:22;;;;;;;;;;;;;;;22.24;39.67;100647.03;4099966;28;20025;-62
2024/03/15 00:29:24;;;;;;;;;;;;;;;22.12;39.96;100650.78;4099909;28;20385;-61
2024/03/15 00:31:25;;;;;;;;;;;;;;;22.18;39.78;100653.75;4099729;28;19922;-60
2024/03/15 00:33:27;;;;;;;;;;;;;;;22.12;39.95;100651.63;4099267;28;19968;-61
2024/03/15 00:35:29;;;;;;;;;;;;;;;22.29;39.61;100654.69;4098647;29;19970;-61
2024/03/15 00:37:30;;;;;;;;;;;;;;;21.89;40.36;100660.78;4099679;28;19926;-60
2024/03/15 00:39:32;;;;;;;;;;;;;;;21.94;40.47;100661.22;4099706;28;19929;-61
2024/03/15 00:41:33;;;;;;;;;;;;;;;22.18;39.57;100659.13;4099485;29;20008;-61
2024/03/15 00:43:36;;;;;;;;;;;;;;;22.29;39.56;100660.88;4099643;28;20004;-61
2024/03/15 00:45:38;;;;;;;;;;;;;;;22.38;39.46;100651.22;4098481;29;20005;-61
2024/03/15 00:47:40;;;;;;;;;;;;;;;22.45;39.31;100651.56;4099420;28;19997;-61
2024/03/15 00:49:41;;;;;;;;;;;;;;;22.49;39.18;100661.00;4099700;29;19922;-61
2024/03/15 00:51:43;;;;;;;;;;;;;;;22.49;39.07;100661.88;4099650;28;20357;-61
2024/03/15 00:53:45;;;;;;;;;;;;;;;22.54;39.08;100661.47;4099527;28;19923;-61
2024/03/15 00:55:46;;;;;;;;;;;;;;;22.59;39.18;100664.59;4099556;28;20017;-62
2024/03/15 00:57:53;;;;;;;;;;;;;;;22.41;39.13;100664.38;4098344;29;19926;-62
2024/03/15 00:59:54;;;;;;;;;;;;;;;22.51;39.16;100669.78;4099508;29;19930;-62
2024/03/15 01:01:58;;;;;;;;;;;;;;;22.55;39.49;100667.66;4099334;29;20013;-63
2024/03/15 01:04:00;;;;;;;;;;;;;;;22.42;39.61;100666.06;4098718;28;19922;-62
2024/03/15 01:06:02;;;;;;;;;;;;;;;22.50;39.44;100662.72;4099576;28;19928;-62
2024/03/15 01:08:03;;;;;;;;;;;;;;;22.57;39.14;100657.69;4099546;28;20467;-62
2024/03/15 01:10:10;;;;;;;;;;;;;;;22.62;39.08;100647.38;4098083;29;19986;-62
2024/03/15 01:12:14;;;;;;;;;;;;;;;22.64;39.22;100653.47;4099362;28;19929;-62
2024/03/15 01:14:16;;;;;;;;;;;;;;;22.66;39.06;100662.22;4099630;28;20396;-61
2024/03/15 01:16:17;;;;;;;;;;;;;;;22.68;38.87;100664.78;4099252;28;20037;-62
2024/03/15 01:18:19;;;;;;;;;;;;;;;22.70;38.79;100652.06;4097739;29;19929;-62
2024/03/15 01:20:20;;;;;;;;;;;;;;;22.62;39.31;100655.44;4099195;28;20009;-62
2024/03/15 01:22:22;;;;;;;;;;;;;;;22.66;39.03;100651.47;4099227;29;20346;-62
2024/03/15 01:24:23;;;;;;;;;;;;;;;22.70;38.83;100658.28;4099385;28;19926;-62
2024/03/15 01:26:25;;;;;;;;;;;;;;;22.72;38.72;100658.16;4099052;29;19930;-62
2024/03/15 01:28:30;;;;;;;;;;;;;;;22.33;39.68;100642.69;4099349;29;19954;-62
2024/03/15 01:30:36;;;;;;;;;;;;;;;22.40;39.53;100640.38;4099171;28;19981;-62
2024/03/15 01:32:43;;;;;;;;;;;;;;;22.53;39.53;100640.16;4098873;28;20023;-62
2024/03/15 01:34:45;;;;;;;;;;;;;;;22.63;39.05;100644.56;4097932;29;19922;-62
2024/03/15 01:36:46;;;;;;;;;;;;;;;22.67;38.99;100633.59;4099042;28;20538;-62
2024/03/15 01:38:48;;;;;;;;;;;;;;;22.70;39.10;100627.94;4097779;29;19935;-63
2024/03/15 01:40:49;;;;;;;;;;;;;;;22.71;39.17;100624.28;4099222;28;19928;-62
2024/03/15 01:42:56;;;;;;;;;;;;;;;22.68;39.28;100621.88;4099316;28;20309;-62
2024/03/15 01:44:58;;;;;;;;;;;;;;;22.74;39.12;100629.38;4099248;28;19957;-62
2024/03/15 01:46:59;;;;;;;;;;;;;;;22.75;38.73;100636.44;4098764;28;19977;-62
2024/03/15 01:49:01;;;;;;;;;;;;;;;22.78;38.83;100631.66;4099187;29;19922;-62
2024/03/15 01:51:03;;;;;;;;;;;;;;;22.81;38.90;100633.22;4099003;28;19926;-62
2024/03/15 01:53:05;;;;;;;;;;;;;;;22.83;38.69;100633.06;4099256;28;19929;-62
2024/03/15 01:55:11;;;;;;;;;;;;;;;22.86;39.09;100633.66;4099037;28;19926;-62
2024/03/15 01:57:17;;;;;;;;;;;;;;;22.86;38.68;100625.59;4099002;29;19922;-61
2024/03/15 01:59:19;;;;;;;;;;;;;;;22.88;39.10;100622.78;4099236;28;20370;-62
2024/03/15 02:01:21;;;;;;;;;;;;;;;22.87;38.80;100621.06;4098608;28;19923;-62
2024/03/15 02:03:25;;;;;;;;;;;;;;;22.86;39.06;100630.13;4098825;28;19922;-62
2024/03/15 02:05:27;;;;;;;;;;;;;;;22.81;39.07;100625.16;4098913;29;19930;-62
2024/03/15 02:07:29;;;;;;;;;;;;;;;22.83;38.81;100627.72;4098786;29;19922;-62
2024/03/15 02:09:30;;;;;;;;;;;;;;;22.82;39.25;100624.19;4098881;29;20401;-61
2024/03/15 02:11:32;;;;;;;;;;;;;;;22.56;39.38;100618.44;4098866;28;19938;-61
2024/03/15 02:13:33;;;;;;;;;;;;;;;22.68;39.46;100617.34;4098878;28;19926;-61
2024/03/15 02:15:36;;;;;;;;;;;;;;;22.76;39.13;100617.53;4100722;28;19926;-61
2024/03/15 02:17:40;;;;;;;;;;;;;;;22.82;39.20;100626.88;4101891;28;19929;-61
2024/03/15 02:19:42;;;;;;;;;;;;;;;22.87;38.94;100626.44;4101802;28;19965;-62
2024/03/15 02:21:47;;;;;;;;;;;;;;;22.90;38.87;100623.50;4101710;28;20008;-62
2024/03/15 02:23:49;;;;;;;;;;;;;;;22.90;38.84;100631.53;4101979;29;20013;-63
2024/03/15 02:25:51;;;;;;;;;;;;;;;22.59;39.55;100623.53;4101930;28;19964;-62
2024/03/15 02:27:52;;;;;;;;;;;;;;;22.54;40.24;100626.63;4101845;28;19928;-62
2024/03/15 02:29:55;;;;;;;;;;;;;;;22.54;39.74;100617.72;4101496;29;20568;-60
2024/03/15 02:31:56;;;;;;;;;;;;;;;22.61;39.81;100619.75;4101799;28;19958;-61
2024/03/15 02:34:00;;;;;;;;;;;;;;;22.67;39.51;100615.66;4101605;28;20301;-62
2024/03/15 02:36:01;;;;;;;;;;;;;;;22.54;39.67;100618.59;4101789;28;19977;-61
2024/03/15 02:38:03;;;;;;;;;;;;;;;22.66;39.56;100616.63;4101558;28;19970;-60
2024/03/15 02:40:09;;;;;;;;;;;;;;;22.73;39.54;100616.94;4101483;28;20064;-63
2024/03/15 02:42:11;;;;;;;;;;;;;;;22.76;39.54;100624.72;4101441;28;19923;-61
2024/03/15 02:44:12;;;;;;;;;;;;;;;22.55;39.93;100630.97;4101232;29;19923;-61
2024/03/15 02:46:15;;;;;;;;;;;;;;;22.49;39.85;100631.53;4101435;28;20300;-62
2024/03/15 02:48:16;;;;;;;;;;;;;;;22.52;39.63;100606.28;4101326;28;19981;-62
2024/03/15 02:50:20;;;;;;;;;;;;;;;22.73;39.40;100620.47;4101522;29;19933;-61
2024/03/15 02:52:21;;;;;;;;;;;;;;;22.32;40.35;100632.97;4101293;28;20295;-62
2024/03/15 02:54:27;;;;;;;;;;;;;;;22.43;40.32;100634.75;4101390;28;19961;-62
2024/03/15 02:56:28;;;;;;;;;;;;;;;22.53;40.27;100635.66;4101147;28;19923;-61
2024/03/15 02:58:30;;;;;;;;;;;;;;;22.62;39.78;100624.09;4100715;28;19926;-62
2024/03/15 03:00:33;;;;;;;;;;;;;;;22.48;39.97;100636.06;4101237;28;19957;-62
2024/03/15 03:02:34;;;;;;;;;;;;;;;22.33;40.42;100632.84;4101165;28;19938;-61
2024/03/15 03:04:36;;;;;;;;;;;;;;;22.45;40.23;100636.31;4100975;28;20013;-61
2024/03/15 03:06:38;;;;;;;;;;;;;;;22.42;40.39;100628.56;4099991;29;19927;-60
2024/03/15 03:08:40;;;;;;;;;;;;;;;22.43;40.23;100630.25;4101213;28;19929;-60
2024/03/15 03:10:44;;;;;;;;;;;;;;;22.57;39.99;100634.38;4100946;28;19926;-60
2024/03/15 03:12:46;;;;;;;;;;;;;;;22.56;39.62;100613.91;4100482;28;19927;-61
2024/03/15 03:14:47;;;;;;;;;;;;;;;22.70;39.83;100631.47;4100828;29;19922;-60
2024/03/15 03:16:49;;;;;;;;;;;;;;;22.30;41.26;100632.28;4100924;28;20005;-61
2024/03/15 03:18:54;;;;;;;;;;;;;;;22.02;41.46;100642.69;4101057;28;19923;-61
2024/03/15 03:20:56;;;;;;;;;;;;;;;22.14;40.93;100636.28;4101186;29;19929;-61
2024/03/15 03:23:01;;;;;;;;;;;;;;;22.33;40.53;100635.53;4101059;29;20003;-61
2024/03/15 03:25:02;;;;;;;;;;;;;;;22.46;40.32;100642.53;4100771;28;19922;-62
2024/03/15 03:27:05;;;;;;;;;;;;;;;22.30;40.50;100638.47;4099750;28;19926;-61
2024/03/15 03:29:07;;;;;;;;;;;;;;;21.73;42.18;100640.66;4100765;29;19945;-60
2024/03/15 03:31:11;;;;;;;;;;;;;;;21.88;41.90;100634.97;4100850;29;20016;-62
2024/03/15 03:33:13;;;;;;;;;;;;;;;22.08;41.15;100634.13;4100697;28;19922;-62
2024/03/15 03:35:15;;;;;;;;;;;;;;;21.83;42.06;100640.72;4100870;28;19926;-61
2024/03/15 03:37:16;;;;;;;;;;;;;;;21.98;41.43;100644.78;4100696;28;20374;-62
2024/03/15 03:39:20;;;;;;;;;;;;;;;22.21;41.06;100646.44;4100597;29;19923;-62
2024/03/15 03:41:23;;;;;;;;;;;;;;;22.02;41.63;100656.06;4100668;28;20309;-63
2024/03/15 03:43:24;;;;;;;;;;;;;;;21.93;41.51;100652.31;4100265;28;20048;-63
2024/03/15 03:45:27;;;;;;;;;;;;;;;22.17;41.00;100646.69;4100698;28;20345;-63
2024/03/15 03:47:28;;;;;;;;;;;;;;;22.31;40.82;100650.88;4100784;29;20366;-62
2024/03/15 03:49:30;;;;;;;;;;;;;;;22.38;40.75;100653.91;4100677;29;20001;-63
2024/03/15 03:51:31;;;;;;;;;;;;;;;22.33;40.94;100648.94;4100737;28;20409;-62
2024/03/15 03:53:33;;;;;;;;;;;;;;;22.07;41.60;100653.00;4100472;28;19958;-62
2024/03/15 03:55:40;;;;;;;;;;;;;;;22.13;41.22;100653.31;4100853;28;19933;-60
2024/03/15 03:57:42;;;;;;;;;;;;;;;22.19;41.01;100654.63;4099896;28;19929;-60
2024/03/15 03:59:47;;;;;;;;;;;;;;;22.20;40.97;100653.66;4100296;28;19926;-60
2024/03/15 04:01:50;;;;;;;;;;;;;;;22.31;41.01;100653.56;4100011;28;19923;-62
2024/03/15 04:03:51;;;;;;;;;;;;;;;22.36;40.91;100658.53;4100439;28;20354;-62
2024/03/15 04:05:53;;;;;;;;;;;;;;;22.15;41.39;100648.69;4100157;28;19922;-62
2024/03/15 04:07:55;;;;;;;;;;;;;;;22.33;41.06;100661.47;4100317;28;20309;-62
2024/03/15 04:09:57;;;;;;;;;;;;;;;22.08;41.28;100660.03;4099914;28;19923;-61
2024/03/15 04:11:59;;;;;;;;;;;;;;;22.07;41.66;100656.53;4099845;29;19922;-61
2024/03/15 04:14:02;;;;;;;;;;;;;;;22.23;41.02;100655.22;4099980;28;20012;-62
2024/03/15 04:16:04;;;;;;;;;;;;;;;22.36;40.70;100657.66;4100287;28;20417;-62
2024/03/15 04:18:06;;;;;;;;;;;;;;;21.65;42.62;100675.22;4100118;28;19922;-61
2024/03/15 04:20:16;;;;;;;;;;;;;;;21.85;42.18;100661.03;4100163;28;19922;-61
2024/03/15 04:22:17;;;;;;;;;;;;;;;21.72;42.75;100671.06;4099871;29;19923;-61
2024/03/15 04:24:19;;;;;;;;;;;;;;;21.82;42.22;100661.28;4099970;29;19923;-62
2024/03/15 04:26:21;;;;;;;;;;;;;;;21.98;41.86;100665.31;4099655;29;19922;-62
2024/03/15 04:28:24;;;;;;;;;;;;;;;21.75;42.42;100665.47;4100161;28;19923;-62
2024/03/15 04:30:28;;;;;;;;;;;;;;;21.98;41.55;100666.19;4099759;28;19922;-62
2024/03/15 04:32:34;;;;;;;;;;;;;;;22.17;41.37;100669.97;4099999;28;19926;-62
2024/03/15 04:34:40;;;;;;;;;;;;;;;22.09;41.00;100635.81;4099845;28;19930;-63
2024/03/15 04:36:43;;;;;;;;;;;;;;;22.36;41.30;100663.03;4100000;28;19928;-62
2024/03/15 04:38:45;;;;;;;;;;;;;;;21.76;42.28;100655.59;4098964;28;19929;-61
2024/03/15 04:40:46;;;;;;;;;;;;;;;22.06;41.67;100660.19;4099338;28;19930;-62
2024/03/15 04:42:48;;;;;;;;;;;;;;;22.03;41.77;100657.78;4099779;28;20009;-61
2024/03/15 04:44:52;;;;;;;;;;;;;;;22.10;41.33;100660.75;4099699;28;20017;-60
2024/03/15 04:46:54;;;;;;;;;;;;;;;22.12;41.28;100667.69;4099606;29;20305;-61
2024/03/15 04:48:56;;;;;;;;;;;;;;;22.25;41.04;100663.94;4099588;28;19926;-61
2024/03/15 04:50:58;;;;;;;;;;;;;;;21.55;42.81;100675.94;4099687;28;19923;-62
2024/03/15 04:52:59;;;;;;;;;;;;;;;21.74;42.37;100665.56;4099480;28;19977;-62
2024/03/15 04:55:01;;;;;;;;;;;;;;;21.97;41.67;100669.84;4099225;28;19976;-62
2024/03/15 04:57:02;;;;;;;;;;;;;;;22.09;41.36;100667.97;4099579;29;20401;-62
2024/03/15 04:59:06;;;;;;;;;;;;;;;22.20;41.18;100669.72;4099537;29;19928;-61
2024/03/15 05:01:07;;;;;;;;;;;;;;;22.32;41.08;100670.47;4099610;28;19922;-62
2024/03/15 05:03:11;;;;;;;;;;;;;;;22.33;40.80;100673.03;4099380;29;19929;-61
2024/03/15 05:05:16;;;;;;;;;;;;;;;22.20;41.10;100674.22;4099414;28;20020;-62
2024/03/15 05:07:18;;;;;;;;;;;;;;;22.28;41.26;100669.06;4099331;29;19926;-61
2024/03/15 05:09:22;;;;;;;;;;;;;;;22.17;41.58;100670.81;4099134;28;19922;-62
2024/03/15 05:11:24;;;;;;;;;;;;;;;22.21;41.24;100675.91;4099077;28;19928;-62
2024/03/15 05:13:25;;;;;;;;;;;;;;;22.31;41.07;100677.69;4099279;28;19922;-61
2024/03/15 05:15:27;;;;;;;;;;;;;;;22.29;41.33;100673.44;4098188;29;20325;-61
2024/03/15 05:17:29;;;;;;;;;;;;;;;22.05;41.42;100674.53;4099434;28;19923;-61
2024/03/15 05:19:30;;;;;;;;;;;;;;;22.13;41.35;100671.22;4099315;29;20409;-61
2024/03/15 05:21:40;;;;;;;;;;;;;;;21.92;42.00;100669.41;4099208;28;19932;-62
2024/03/15 05:23:42;;;;;;;;;;;;;;;22.13;41.71;100679.25;4098919;28;19929;-62
2024/03/15 05:25:43;;;;;;;;;;;;;;;21.92;42.00;100676.56;4099172;28;20402;-62
2024/03/15 05:27:46;;;;;;;;;;;;;;;21.53;42.74;100675.25;4099171;28;19927;-62
2024/03/15 05:29:48;;;;;;;;;;;;;;;21.51;42.77;100681.69;4099348;29;19930;-62
2024/03/15 05:31:51;;;;;;;;;;;;;;;21.82;42.12;100684.53;4099329;29;20009;-62
2024/03/15 05:33:52;;;;;;;;;;;;;;;21.84;42.03;100686.09;4099347;28;20505;-62
2024/03/15 05:35:54;;;;;;;;;;;;;;;21.88;41.71;100681.31;4099333;28;19974;-62
2024/03/15 05:37:55;;;;;;;;;;;;;;;21.76;42.26;100685.03;4098795;28;19932;-62
2024/03/15 05:39:57;;;;;;;;;;;;;;;21.99;41.61;100683.97;4098024;29;20392;-62
2024/03/15 05:41:59;;;;;;;;;;;;;;;22.14;41.33;100687.16;4099107;28;20005;-62
2024/03/15 05:44:01;;;;;;;;;;;;;;;22.23;41.09;100690.88;4099212;28;19930;-63
2024/03/15 05:46:03;;;;;;;;;;;;;;;22.28;40.95;100685.97;4099175;28;19923;-62
2024/03/15 05:48:05;;;;;;;;;;;;;;;22.27;40.90;100691.47;4099227;28;19922;-63
2024/03/15 05:50:07;;;;;;;;;;;;;;;22.24;40.98;100694.41;4100291;28;19933;-61
2024/03/15 05:52:10;;;;;;;;;;;;;;;22.31;40.87;100688.41;4100742;29;19923;-61
2024/03/15 05:54:12;;;;;;;;;;;;;;;22.34;40.91;100689.97;4102198;28;19926;-61
2024/03/15 05:56:14;;;;;;;;;;;;;;;22.38;40.73;100687.88;4102227;28;19992;-61
2024/03/15 05:58:16;;;;;;;;;;;;;;;22.00;41.54;100690.16;4102109;28;20026;-62
2024/03/15 06:00:21;;;;;;;;;;;;;;;22.15;41.40;100696.91;4102081;28;20036;-61
2024/03/15 06:02:23;;;;;;;;;;;;;;;21.94;41.36;100699.53;4101940;28;19953;-62
2024/03/15 06:04:24;;;;;;;;;;;;;;;21.91;41.49;100702.50;4102063;28;19948;-61
2024/03/15 06:06:27;;;;;;;;;;;;;;;21.98;41.74;100702.81;4101911;28;19926;-61
2024/03/15 06:08:30;;;;;;;;;;;;;;;21.31;42.68;100700.25;4100774;29;20020;-61
2024/03/15 06:10:31;;;;;;;;;;;;;;;21.37;42.83;100706.91;4101746;28;19923;-61
2024/03/15 06:12:33;;;;;;;;;;;;;;;21.26;43.23;100706.94;4102045;28;20310;-61
2024/03/15 06:14:35;;;;;;;;;;;;;;;21.65;42.40;100708.22;4100909;29;19926;-60
2024/03/15 06:16:37;;;;;;;;;;;;;;;21.89;41.76;100714.31;4101790;28;19969;-61
2024/03/15 06:18:41;;;;;;;;;;;;;;;22.02;41.24;100717.66;4101557;28;20247;-61
2024/03/15 06:20:43;;;;;;;;;;;;;;;22.07;41.32;100715.44;4102034;28;20567;-62
2024/03/15 06:22:45;;;;;;;;;;;;;;;22.12;41.25;100728.44;4101428;28;20020;-62
2024/03/15 06:24:47;;;;;;;;;;;;;;;22.20;40.77;100725.97;4101889;28;20350;-61
2024/03/15 06:26:49;;;;;;;;;;;;;;;22.28;40.65;100733.34;4101853;28;20338;-61
2024/03/15 06:28:54;;;;;;;;;;;;;;;22.31;40.63;100735.78;4101887;28;19922;-61
2024/03/15 06:30:55;;;;;;;;;;;;;;;22.35;40.66;100731.84;4101803;28;19926;-61
2024/03/15 06:32:59;;;;;;;;;;;;;;;22.38;40.82;100742.31;4101609;28;19926;-61
2024/03/15 06:35:08;;;;;;;;;;;;;;;22.37;40.69;100740.63;4101682;28;19973;-60
2024/03/15 06:37:12;;;;;;;;;;;;;;;22.39;40.54;100745.88;4101305;29;20009;-61
2024/03/15 06:41:50;;;;;;;;;;;;;;;22.41;40.34;100746.59;4099483;29;19923;-61
2024/03/15 06:46:24;;;;;;;;;;;;;;;22.26;40.65;100741.53;4099606;29;19929;-60
2024/03/15 06:48:44;;;;;;;;;;;;;;;22.28;40.86;100742.22;4099735;29;19922;-61
2024/03/15 06:51:00;;;;;;;;;;;;;;;22.33;40.53;100744.53;4099063;29;20005;-61
2024/03/15 06:53:06;;;;;;;;;;;;;;;22.14;40.84;100739.88;4099605;29;19922;-61
2024/03/15 06:55:15;;;;;;;;;;;;;;;22.25;40.88;100750.53;4099373;29;19926;-61
2024/03/15 06:57:22;;;;;;;;;;;;;;;21.98;41.09;100746.53;4099373;29;20370;-61
2024/03/15 06:59:24;;;;;;;;;;;;;;;21.77;41.31;100741.13;4099246;29;19922;-61
2024/03/15 07:01:27;;;;;;;;;;;;;;;21.96;41.40;100744.97;4098232;28;19922;-61
2024/03/15 07:03:30;;;;;;;;;;;;;;;22.15;40.83;100746.94;4099154;29;20359;-62
2024/03/15 07:05:32;;;;;;;;;;;;;;;22.26;40.45;100749.56;4098897;29;19922;-61
2024/03/15 07:07:40;;;;;;;;;;;;;;;22.33;40.52;100752.56;4099184;29;20013;-60
2024/03/15 07:09:49;;;;;;;;;;;;;;;22.06;40.86;100748.56;4099056;28;20600;-62
2024/03/15 07:11:52;;;;;;;;;;;;;;;22.20;40.88;100758.13;4083161;29;19922;-63
2024/03/15 07:13:56;;;;;;;;;;;;;;;22.27;40.50;100751.28;4098818;29;19923;-62
2024/03/15 07:15:58;;;;;;;;;;;;;;;22.19;40.65;100753.75;4099107;29;19929;-62
2024/03/15 07:18:04;;;;;;;;;;;;;;;22.07;41.07;100757.47;4099317;29;19929;-62
2024/03/15 07:20:12;;;;;;;;;;;;;;;22.06;40.92;100759.28;4100797;28;19934;-62
2024/03/15 07:22:15;;;;;;;;;;;;;;;22.08;40.83;100759.13;4101089;28;19976;-63
2024/03/15 07:24:17;;;;;;;;;;;;;;;22.08;40.79;100767.16;4100698;28;20025;-63
2024/03/15 07:26:19;;;;;;;;;;;;;;;22.23;40.64;100763.22;4099794;29;19929;-61
2024/03/15 07:28:21;;;;;;;;;;;;;;;22.24;40.27;100775.63;4100629;28;19949;-61
2024/03/15 07:30:23;;;;;;;;;;;;;;;22.02;40.52;100781.94;4100896;28;19945;-62
2024/03/15 07:32:25;;;;;;;;;;;;;;;21.97;40.74;100773.41;4100842;28;19922;-62
2024/03/15 07:34:27;;;;;;;;;;;;;;;21.92;40.95;100767.59;4100327;29;19926;-61
2024/03/15 07:36:29;;;;;;;;;;;;;;;22.10;40.86;100767.91;4100875;28;20000;-62
2024/03/15 07:38:31;;;;;;;;;;;;;;;22.25;40.37;100774.66;4100687;28;19926;-61
2024/03/15 07:40:33;;;;;;;;;;;;;;;22.02;40.62;100769.38;4100741;28;19923;-61
2024/03/15 07:42:35;;;;;;;;;;;;;;;21.38;41.32;100770.13;4100588;28;19922;-61
2024/03/15 07:44:37;;;;;;;;;;;;;;;21.55;41.43;100772.28;4100299;28;20006;-61
2024/03/15 07:46:41;;;;;;;;;;;;;;;21.90;41.02;100774.94;4100481;29;19929;-62
2024/03/15 07:48:43;;;;;;;;;;;;;;;22.00;40.39;100776.69;4100302;28;20353;-62
2024/03/15 07:50:44;;;;;;;;;;;;;;;21.26;42.16;100789.84;4100443;28;19944;-61
2024/03/15 07:52:46;;;;;;;;;;;;;;;20.98;42.38;100784.00;4099293;29;19974;-62
2024/03/15 07:54:48;;;;;;;;;;;;;;;20.35;43.83;100793.22;4100418;28;19958;-62
2024/03/15 07:56:52;;;;;;;;;;;;;;;21.03;42.63;100789.84;4100351;28;19922;-61
2024/03/15 07:58:54;;;;;;;;;;;;;;;21.25;42.45;100794.34;4100291;28;19929;-61
2024/03/15 08:00:56;;;;;;;;;;;;;;;20.81;43.22;100786.19;4100368;28;20017;-61
2024/03/15 08:02:58;;;;;;;;;;;;;;;21.08;42.79;100787.66;4099778;28;19926;-61
2024/03/15 08:05:00;;;;;;;;;;;;;;;21.06;42.37;100787.78;4099975;29;19922;-61
2024/03/15 08:07:03;;;;;;;;;;;;;;;20.62;43.49;100784.06;4099785;28;19976;-61
2024/03/15 08:09:06;;;;;;;;;;;;;;;21.10;42.62;100780.38;4099902;28;19922;-61
2024/03/15 08:11:08;;;;;;;;;;;;;;;21.45;41.88;100792.75;4100092;29;20009;-61
2024/03/15 08:13:11;;;;;;;;;;;;;;;21.55;41.22;100784.81;4099939;28;19922;-60
2024/03/15 08:15:13;;;;;;;;;;;;;;;21.28;42.12;100790.59;4100091;28;19926;-61
2024/03/15 08:17:15;;;;;;;;;;;;;;;21.45;41.67;100790.06;4099938;28;19934;-61
2024/03/15 08:19:22;;;;;;;;;;;;;;;21.14;42.07;100789.88;4099802;28;19930;-61
2024/03/15 08:21:24;;;;;;;;;;;;;;;20.99;43.13;100791.91;4100010;28;19922;-61
2024/03/15 08:23:27;;;;;;;;;;;;;;;21.31;42.04;100784.97;4099934;28;20394;-60
2024/03/15 08:25:29;;;;;;;;;;;;;;;21.47;41.87;100795.28;4099749;28;19930;-61
2024/03/15 08:27:31;;;;;;;;;;;;;;;21.25;41.84;100794.34;4099754;28;19922;-61
2024/03/15 08:29:32;;;;;;;;;;;;;;;20.96;42.57;100786.81;4099947;28;20287;-61
2024/03/15 08:31:34;;;;;;;;;;;;;;;20.96;42.58;100804.66;4099415;28;19922;-61
2024/03/15 08:33:35;;;;;;;;;;;;;;;20.69;43.17;100795.13;4099464;28;19930;-62
2024/03/15 08:35:38;;;;;;;;;;;;;;;20.71;43.58;100810.06;4099642;28;20303;-65
2024/03/15 08:37:42;;;;;;;;;;;;;;;20.86;43.42;100807.22;4096483;28;20044;-64
2024/03/15 08:39:44;;;;;;;;;;;;;;;21.08;43.11;100806.38;4095562;28;19969;-63
2024/03/15 08:41:45;;;;;;;;;;;;;;;20.65;43.38;100805.19;4099364;28;19922;-64
2024/03/15 08:43:49;;;;;;;;;;;;;;;20.55;43.85;100814.91;4099554;28;19986;-62
2024/03/15 08:45:51;;;;;;;;;;;;;;;20.99;43.52;100817.81;4098964;29;19927;-59
2024/03/15 08:47:52;;;;;;;;;;;;;;;20.73;43.84;100818.84;4096041;29;20017;-60
2024/03/15 08:50:03;;;;;;;;;;;;;;;20.76;44.15;100817.75;4099251;29;19922;-61
2024/03/15 08:52:05;;;;;;;;;;;;;;;20.81;43.65;100817.41;4088981;29;19922;-61
2024/03/15 08:54:07;;;;;;;;;;;;;;;21.19;43.05;100819.78;4099224;28;19923;-60
2024/03/15 08:56:09;;;;;;;;;;;;;;;21.37;42.45;100821.94;4098864;28;19938;-62
2024/03/15 08:58:11;;;;;;;;;;;;;;;21.07;43.08;100820.75;4099124;28;20126;-60
2024/03/15 09:00:12;;;;;;;;;;;;;;;21.04;43.71;100821.81;4098865;29;19927;-62
2024/03/15 09:02:19;;;;;;;;;;;;;;;21.43;42.75;100823.28;4098809;28;19953;-60
2024/03/15 09:04:22;;;;;;;;;;;;;;;21.66;41.97;100829.50;4098909;29;19922;-61
2024/03/15 09:06:25;;;;;;;;;;;;;;;21.82;41.71;100821.94;4098806;28;19922;-61
2024/03/15 09:08:27;;;;;;;;;;;;;;;21.96;41.68;100827.97;4098989;29;19923;-60
2024/03/15 09:10:28;;;;;;;;;;;;;;;22.07;41.18;100821.75;4098439;28;20380;-63
2024/03/15 09:12:30;;;;;;;;;;;;;;;22.11;41.07;100828.53;4098925;29;19922;-65
2024/03/15 09:14:32;;;;;;;;;;;;;;;22.15;41.01;100819.25;4099128;29;19933;-66
2024/03/15 09:16:37;;;;;;;;;;;;;;;22.20;41.19;100817.06;4098249;28;20382;-62
2024/03/15 09:18:39;;;;;;;;;;;;;;;22.25;40.94;100819.31;4098684;28;19926;-64
2024/03/15 09:20:44;;;;;;;;;;;;;;;22.28;40.99;100832.47;4099030;28;19922;-61
2024/03/15 09:22:49;;;;;;;;;;;;;;;22.34;40.84;100823.94;4098729;29;20449;-61
2024/03/15 09:24:51;;;;;;;;;;;;;;;22.36;40.52;100819.31;4098475;28;20446;-64
2024/03/15 09:26:59;;;;;;;;;;;;;;;22.39;40.49;100821.72;4098739;28;19928;-60
2024/03/15 09:29:06;;;;;;;;;;;;;;;22.44;40.62;100819.53;4098702;28;19922;-59
2024/03/15 09:31:14;;;;;;;;;;;;;;;22.46;40.47;100822.91;4098209;28;19926;-58
2024/03/15 09:33:27;;;;;;;;;;;;;;;22.49;40.63;100822.69;4090190;28;19923;-62
2024/03/15 09:35:31;;;;;;;;;;;;;;;22.54;40.20;100824.97;4097307;29;19973;-63
2024/03/15 09:37:36;;;;;;;;;;;;;;;22.60;40.28;100832.50;4098080;29;19922;-64
2024/03/15 09:39:38;;;;;;;;;;;;;;;22.62;40.32;100825.16;4098337;28;19955;-61
2024/03/15 09:41:41;;;;;;;;;;;;;;;22.65;39.96;100835.63;4098096;28;19930;-66
2024/03/15 09:43:46;;;;;;;;;;;;;;;22.69;40.06;100830.84;4098166;28;20297;-63
2024/03/15 09:45:48;;;;;;;;;;;;;;;22.69;40.31;100825.50;4096818;29;20009;-64
2024/03/15 09:47:50;;;;;;;;;;;;;;;22.72;40.28;100825.22;4097858;28;19941;-63
2024/03/15 09:49:53;;;;;;;;;;;;;;;22.74;40.23;100831.31;4098096;28;20449;-63
2024/03/15 09:51:58;;;;;;;;;;;;;;;22.78;40.27;100835.44;4097623;28;20389;-63
2024/03/15 09:54:02;;;;;;;;;;;;;;;22.80;40.26;100825.41;4098179;28;19926;-64
2024/03/15 09:56:03;;;;;;;;;;;;;;;22.82;40.26;100827.97;4095847;29;19922;-64
2024/03/15 09:58:07;;;;;;;;;;;;;;;22.85;40.03;100816.97;4097898;28;19950;-62
2024/03/15 10:00:13;;;;;;;;;;;;;;;22.88;40.20;100826.59;4097791;28;19926;-64
2024/03/15 10:02:22;;;;;;;;;;;;;;;22.94;40.07;100818.00;4097784;28;19922;-64
2024/03/15 10:04:25;;;;;;;;;;;;;;;22.98;39.91;100822.13;4098107;29;19976;-62
2024/03/15 10:06:26;;;;;;;;;;;;;;;23.02;39.75;100822.72;4098693;28;19978;-63
2024/03/15 10:08:31;;;;;;;;;;;;;;;23.04;39.70;100818.91;4098111;29;19926;-61
2024/03/15 10:10:34;;;;;;;;;;;;;;;23.06;39.90;100824.13;4098211;28;19926;-60
2024/03/15 10:12:36;;;;;;;;;;;;;;;23.08;39.70;100819.50;4098335;28;19962;-63
2024/03/15 10:14:37;;;;;;;;;;;;;;;23.10;39.69;100829.09;4097991;28;19931;-63
2024/03/15 10:16:39;;;;;;;;;;;;;;;23.13;39.63;100822.63;4098264;28;19926;-62
2024/03/15 10:18:41;;;;;;;;;;;;;;;23.15;39.46;100826.03;4097176;29;19923;-62
2024/03/15 10:20:46;;;;;;;;;;;;;;;23.18;39.50;100823.09;4098351;28;20401;-62
2024/03/15 10:22:53;;;;;;;;;;;;;;;23.21;39.45;100808.56;4098054;29;20412;-62
2024/03/15 10:24:54;;;;;;;;;;;;;;;23.22;39.58;100802.22;4098203;28;20021;-62
2024/03/15 10:26:56;;;;;;;;;;;;;;;23.24;39.83;100810.97;4098071;29;20005;-64
2024/03/15 10:28:57;;;;;;;;;;;;;;;23.28;39.66;100809.72;4097702;28;19970;-61
2024/03/15 10:30:59;;;;;;;;;;;;;;;23.28;39.44;100813.28;4098344;29;19998;-60
2024/03/15 10:33:03;;;;;;;;;;;;;;;23.33;39.54;100809.31;4097814;29;19933;-61
2024/03/15 10:35:12;;;;;;;;;;;;;;;23.38;39.25;100810.63;4094941;29;20381;-59